Time;durP1;ratioP1;P1;durP2;ratioP2;P2;SDS_P1;SDS_P2;PMS_P1;PMS_P2;Temp;Humidity;BMP_temperature;BMP_pressure;BME280_temperature;BME280_humidity;BME280_pressure;Samples;Min_cycle;Max_cycle;Signal;HPM_P1;HPM_P2
2023/06/16 04:36:25;;;;;;;;;;;;;;;27.80;67.19;99100.56;5017065;28;19929;-42
2023/06/16 04:38:50;;;;;;;;;;;;;;;27.24;70.29;99115.09;5020053;28;19931;-42
2023/06/16 04:41:15;;;;;;;;;;;;;;;26.91;73.73;99126.19;5036807;28;19921;-42
2023/06/16 04:43:41;;;;;;;;;;;;;;;27.46;70.17;99098.75;5021275;28;20019;-42
2023/06/16 04:46:06;;;;;;;;;;;;;;;28.26;65.40;99073.84;5021228;28;19925;-42
2023/06/16 04:48:31;;;;;;;;;;;;;;;28.70;67.15;99078.94;5021246;28;19920;-42
2023/06/16 04:50:59;;;;;;;;;;;;;;;28.75;65.86;99072.16;5021174;28;19936;-42
2023/06/16 04:53:25;;;;;;;;;;;;;;;29.10;65.38;99072.88;5020906;28;20055;-42
2023/06/16 04:55:50;;;;;;;;;;;;;;;29.15;65.10;99065.25;5018822;28;19976;-42
2023/06/16 04:58:16;;;;;;;;;;;;;;;29.31;66.32;99071.50;5020995;28;19917;-42
2023/06/16 05:00:41;;;;;;;;;;;;;;;29.29;66.62;99068.22;5017816;28;19928;-42
2023/06/16 05:03:06;;;;;;;;;;;;;;;29.68;66.21;99064.84;5015343;28;19925;-42
2023/06/16 05:05:32;;;;;;;;;;;;;;;29.92;64.63;99046.16;5018950;28;19984;-42
2023/06/16 05:07:57;;;;;;;;;;;;;;;29.93;64.57;99055.81;5020438;28;19961;-42
2023/06/16 05:10:22;;;;;;;;;;;;;;;29.94;63.44;99048.66;5017434;28;19917;-42
2023/06/16 05:12:48;;;;;;;;;;;;;;;30.23;63.50;99048.84;5019281;28;20102;-42
2023/06/16 05:15:13;;;;;;;;;;;;;;;30.32;63.26;99057.63;5018517;28;19921;-42
2023/06/16 05:17:39;;;;;;;;;;;;;;;30.36;62.25;99045.66;5019665;28;19968;-42
2023/06/16 05:20:04;;;;;;;;;;;;;;;27.51;68.84;99111.50;5017948;28;19921;-42
2023/06/16 05:22:30;;;;;;;;;;;;;;;27.62;72.30;99113.03;5021217;28;20028;-42
2023/06/16 05:24:56;;;;;;;;;;;;;;;29.41;66.05;99043.00;5021298;28;20516;-42
2023/06/16 05:27:22;;;;;;;;;;;;;;;29.50;66.59;99057.06;5021737;28;19923;-42
2023/06/16 05:29:49;;;;;;;;;;;;;;;29.68;65.75;99056.91;5020720;28;19963;-42
2023/06/16 05:32:14;;;;;;;;;;;;;;;30.20;63.91;99051.03;5020511;28;20111;-42
2023/06/16 05:34:39;;;;;;;;;;;;;;;30.46;59.99;99042.78;5002647;28;19921;-42
2023/06/16 05:37:04;;;;;;;;;;;;;;;30.28;60.08;99048.34;5021682;28;19924;-42
2023/06/16 05:39:30;;;;;;;;;;;;;;;29.10;61.19;99067.56;5020434;28;19917;-42
2023/06/16 05:41:55;;;;;;;;;;;;;;;28.81;64.95;99072.47;5020737;28;19913;-42
2023/06/16 05:44:20;;;;;;;;;;;;;;;30.30;60.41;99034.91;5020349;28;19928;-42
2023/06/16 05:46:45;;;;;;;;;;;;;;;30.41;58.53;99035.31;5020377;28;19925;-42
2023/06/16 05:49:11;;;;;;;;;;;;;;;28.20;57.03;99055.97;5019370;28;19928;-42
2023/06/16 05:51:36;;;;;;;;;;;;;;;27.31;62.40;99085.22;5019061;28;19921;-42
2023/06/16 05:54:01;;;;;;;;;;;;;;;27.04;60.12;99078.22;5018981;28;19955;-42
2023/06/16 05:56:27;;;;;;;;;;;;;;;27.37;64.71;99089.09;5018810;28;19925;-42
2023/06/16 05:58:52;;;;;;;;;;;;;;;27.12;61.93;99064.25;5019379;28;20269;-42
2023/06/16 06:01:17;;;;;;;;;;;;;;;26.97;61.68;99061.31;5017676;28;19921;-42
2023/06/16 06:03:43;;;;;;;;;;;;;;;26.83;61.96;99067.13;5020679;28;19932;-42
2023/06/16 06:06:09;;;;;;;;;;;;;;;27.79;63.00;99061.88;5018952;28;19921;-42
2023/06/16 06:08:34;;;;;;;;;;;;;;;28.76;59.44;99028.78;5020256;28;20051;-42
2023/06/16 06:11:01;;;;;;;;;;;;;;;29.58;54.89;99018.06;5020109;28;19924;-42
2023/06/16 06:13:26;;;;;;;;;;;;;;;31.14;49.04;98987.91;5035552;28;19917;-42
2023/06/16 06:15:51;;;;;;;;;;;;;;;28.66;54.50;99051.94;5019302;28;19924;-42
2023/06/16 06:18:16;;;;;;;;;;;;;;;26.97;62.14;99100.94;5020155;28;20337;-42
2023/06/16 06:20:43;;;;;;;;;;;;;;;27.38;61.13;99068.75;5002588;28;20244;-42
2023/06/16 06:23:08;;;;;;;;;;;;;;;30.38;51.80;99001.16;5020050;28;19979;-42
2023/06/16 06:25:33;;;;;;;;;;;;;;;29.09;53.82;99044.69;5020091;28;19928;-42
2023/06/16 06:27:58;;;;;;;;;;;;;;;29.67;51.09;99020.69;5020433;28;20714;-42
2023/06/16 06:30:25;;;;;;;;;;;;;;;31.46;47.08;99007.22;5018738;28;20029;-42
2023/06/16 06:32:50;;;;;;;;;;;;;;;31.59;45.80;99010.06;5020114;28;20012;-42
2023/06/16 06:35:15;;;;;;;;;;;;;;;30.87;49.92;99039.84;5019719;28;20461;-42
2023/06/16 06:37:41;;;;;;;;;;;;;;;28.99;54.39;99078.47;5020949;28;19920;-42
2023/06/16 06:40:06;;;;;;;;;;;;;;;29.22;53.92;99070.72;5018976;28;20384;-42
2023/06/16 06:42:31;;;;;;;;;;;;;;;29.66;51.62;99057.03;5019288;28;19924;-42
2023/06/16 06:44:57;;;;;;;;;;;;;;;27.97;56.22;99098.06;5019904;28;19935;-42
2023/06/16 06:47:22;;;;;;;;;;;;;;;29.32;57.12;99075.84;5019776;28;19963;-42
2023/06/16 06:49:48;;;;;;;;;;;;;;;30.53;59.13;99072.13;5034689;28;19921;-42
2023/06/16 06:52:13;;;;;;;;;;;;;;;30.29;54.33;99063.31;5019880;28;19925;-42
2023/06/16 06:54:39;;;;;;;;;;;;;;;28.33;61.11;99118.06;5019181;28;20366;-42
2023/06/16 06:57:04;;;;;;;;;;;;;;;28.55;62.52;99115.84;5020674;28;20377;-42
2023/06/16 06:59:29;;;;;;;;;;;;;;;26.89;68.69;99138.72;5019817;28;19973;-42
2023/06/16 07:01:55;;;;;;;;;;;;;;;28.59;65.03;99093.34;5017323;28;19928;-42
2023/06/16 07:04:20;;;;;;;;;;;;;;;28.48;67.08;99114.81;5019721;28;20097;-42
2023/06/16 07:06:46;;;;;;;;;;;;;;;27.53;75.26;99152.69;5023820;28;20932;-42
2023/06/16 07:09:11;;;;;;;;;;;;;;;29.56;70.72;99110.31;5023104;28;20280;-42
2023/06/16 07:11:36;;;;;;;;;;;;;;;28.83;66.58;99091.69;5023814;28;19916;-42
2023/06/16 07:14:02;;;;;;;;;;;;;;;28.54;68.21;99116.84;5024804;28;19928;-42
2023/06/16 07:16:27;;;;;;;;;;;;;;;30.07;65.13;99077.31;5022235;28;19925;-42
2023/06/16 07:18:52;;;;;;;;;;;;;;;28.86;66.71;99110.78;5022989;28;19936;-42
2023/06/16 07:21:18;;;;;;;;;;;;;;;29.05;69.32;99112.28;5023568;28;19917;-42
2023/06/16 07:23:43;;;;;;;;;;;;;;;29.28;65.71;99104.50;5023514;28;19948;-42
2023/06/16 07:26:08;;;;;;;;;;;;;;;28.94;65.25;99104.63;5020413;28;20388;-42
2023/06/16 07:28:34;;;;;;;;;;;;;;;27.07;69.14;99136.09;5022456;28;20300;-42
2023/06/16 07:30:59;;;;;;;;;;;;;;;28.58;68.02;99099.63;5020854;28;20387;-42
2023/06/16 07:33:24;;;;;;;;;;;;;;;28.07;60.07;99094.28;5020780;28;20818;-43
2023/06/16 07:35:50;;;;;;;;;;;;;;;27.30;71.25;99147.06;5022384;28;20453;-42
2023/06/16 07:38:15;;;;;;;;;;;;;;;29.35;69.59;99107.31;5004488;28;19928;-42
2023/06/16 07:40:41;;;;;;;;;;;;;;;27.96;72.45;99139.56;5022922;28;19924;-42
2023/06/16 07:43:06;;;;;;;;;;;;;;;27.58;75.80;99154.88;5022916;28;19935;-42
2023/06/16 07:45:33;;;;;;;;;;;;;;;27.70;72.95;99129.78;5022137;28;19921;-42
2023/06/16 07:47:58;;;;;;;;;;;;;;;30.48;56.34;99050.56;5023261;28;20007;-42
2023/06/16 07:50:24;;;;;;;;;;;;;;;30.67;58.76;99076.69;5021140;28;20008;-42
2023/06/16 07:52:49;;;;;;;;;;;;;;;28.06;70.96;99153.53;5022339;28;20031;-43
2023/06/16 07:55:14;;;;;;;;;;;;;;;28.19;70.29;99125.78;5021730;28;19921;-42
2023/06/16 07:57:40;;;;;;;;;;;;;;;29.86;63.08;99075.25;5037233;28;19947;-42
2023/06/16 08:00:11;;;;;;;;;;;;;;;28.97;60.86;99076.00;5019745;28;20680;-42
2023/06/16 08:02:36;;;;;;;;;;;;;;;29.97;65.58;99106.72;5036370;28;19917;-42
2023/06/16 08:05:01;;;;;;;;;;;;;;;29.31;62.77;99092.72;5003447;28;19925;-42
2023/06/16 08:07:26;;;;;;;;;;;;;;;30.85;61.73;99079.91;5022415;28;20115;-42
2023/06/16 08:09:52;;;;;;;;;;;;;;;28.75;60.66;99111.91;5022263;28;19920;-43
2023/06/16 08:12:17;;;;;;;;;;;;;;;29.46;60.08;99082.28;5021312;28;19935;-43
2023/06/16 08:14:42;;;;;;;;;;;;;;;29.46;59.90;99077.78;5021440;28;19924;-43
2023/06/16 08:17:07;;;;;;;;;;;;;;;28.93;62.01;99089.75;5019620;28;19948;-42
2023/06/16 08:19:33;;;;;;;;;;;;;;;29.40;65.11;99102.38;5021675;28;19921;-43
2023/06/16 08:21:59;;;;;;;;;;;;;;;28.28;63.57;99099.19;5022073;28;19920;-43
2023/06/16 08:24:24;;;;;;;;;;;;;;;29.86;54.12;99046.06;5021656;28;20062;-42
2023/06/16 08:26:49;;;;;;;;;;;;;;;30.18;55.62;99071.63;5021477;28;20518;-43
2023/06/16 08:29:14;;;;;;;;;;;;;;;29.33;65.06;99118.13;5021717;28;20390;-43
2023/06/16 08:31:40;;;;;;;;;;;;;;;29.11;56.16;99076.34;5021794;28;20032;-43
2023/06/16 08:34:05;;;;;;;;;;;;;;;31.41;50.49;99037.03;5021720;28;20357;-43
2023/06/16 08:36:32;;;;;;;;;;;;;;;29.59;59.09;99096.69;5037073;28;19946;-43
2023/06/16 08:38:57;;;;;;;;;;;;;;;28.15;53.38;99082.91;5021589;28;19927;-43
2023/06/16 08:41:22;;;;;;;;;;;;;;;29.48;51.64;99056.41;5021201;28;20657;-43
2023/06/16 08:43:48;;;;;;;;;;;;;;;29.54;57.91;99091.06;5037155;28;19925;-43
2023/06/16 08:46:13;;;;;;;;;;;;;;;29.60;57.56;99074.47;5020116;28;19924;-43
2023/06/16 08:48:39;;;;;;;;;;;;;;;30.68;49.39;99035.81;5021884;28;19921;-43
2023/06/16 08:51:04;;;;;;;;;;;;;;;34.02;44.10;98997.59;5036742;28;20374;-43
2023/06/16 08:53:31;;;;;;;;;;;;;;;30.62;47.96;99053.28;5020748;28;20487;-43
2023/06/16 08:55:57;;;;;;;;;;;;;;;29.98;49.17;99061.41;5021491;28;19921;-43
2023/06/16 08:58:22;;;;;;;;;;;;;;;30.08;54.14;99094.91;5020017;28;19948;-43
2023/06/16 09:00:48;;;;;;;;;;;;;;;30.22;54.23;99084.41;5018422;28;19964;-43
2023/06/16 09:03:13;;;;;;;;;;;;;;;29.47;56.84;99095.38;5021403;28;20358;-43
2023/06/16 09:05:38;;;;;;;;;;;;;;;30.10;52.45;99063.69;5021613;28;19956;-44
2023/06/16 09:08:05;;;;;;;;;;;;;;;30.67;49.69;99052.75;5021067;28;19917;-43
2023/06/16 09:10:30;;;;;;;;;;;;;;;34.53;40.29;98981.91;5019605;28;19991;-43
2023/06/16 09:12:58;;;;;;;;;;;;;;;31.00;52.77;99103.09;5036387;28;19920;-43
2023/06/16 09:15:24;;;;;;;;;;;;;;;31.65;52.82;99075.06;5019926;28;20421;-43
2023/06/16 09:17:50;;;;;;;;;;;;;;;33.42;40.17;99002.66;5021712;28;19928;-43
2023/06/16 09:20:16;;;;;;;;;;;;;;;33.40;46.85;99047.41;5021209;28;19996;-43
2023/06/16 09:22:41;;;;;;;;;;;;;;;35.08;43.16;99011.16;5021155;28;20007;-44
2023/06/16 09:25:09;;;;;;;;;;;;;;;31.95;48.78;99069.72;5020961;28;19925;-43
2023/06/16 09:27:41;;;;;;;;;;;;;;;31.92;47.46;99067.44;5020558;28;19951;-43
2023/06/16 09:30:06;;;;;;;;;;;;;;;30.19;52.41;99097.19;5020538;28;20003;-43
2023/06/16 09:32:38;;;;;;;;;;;;;;;33.54;42.19;99011.75;5020144;28;19917;-43
2023/06/16 09:35:15;;;;;;;;;;;;;;;35.19;39.38;98994.50;5035937;28;19928;-44
2023/06/16 09:37:41;;;;;;;;;;;;;;;35.68;39.19;99008.41;5020654;28;19982;-43
2023/06/16 09:40:07;;;;;;;;;;;;;;;32.57;44.61;99065.78;5019997;28;20618;-43
2023/06/16 09:42:33;;;;;;;;;;;;;;;30.21;59.64;99135.03;5035657;28;20301;-44
2023/06/16 09:44:58;;;;;;;;;;;;;;;29.49;52.27;99088.09;5036105;28;19917;-44
2023/06/16 09:47:23;;;;;;;;;;;;;;;31.57;55.01;99073.31;5020201;28;20011;-44
2023/06/16 09:49:52;;;;;;;;;;;;;;;31.12;46.51;99043.13;5019850;28;20122;-44
2023/06/16 09:52:17;;;;;;;;;;;;;;;31.77;51.92;99075.41;5020308;28;19967;-44
2023/06/16 09:54:42;;;;;;;;;;;;;;;30.60;58.16;99102.31;5020316;28;20008;-44
2023/06/16 09:57:07;;;;;;;;;;;;;;;33.26;44.39;99009.97;5020060;28;20047;-43
2023/06/16 09:59:32;;;;;;;;;;;;;;;32.27;45.76;99031.19;5034576;28;19917;-44
2023/06/16 10:01:58;;;;;;;;;;;;;;;31.19;51.46;99065.31;5017560;28;19913;-44
2023/06/16 10:04:23;;;;;;;;;;;;;;;34.27;42.40;98997.91;5020629;28;19921;-44
2023/06/16 10:06:53;;;;;;;;;;;;;;;31.36;46.89;99057.19;5035730;28;20265;-44
2023/06/16 10:09:19;;;;;;;;;;;;;;;30.82;52.37;99072.25;5018984;28;19917;-44
2023/06/16 10:11:46;;;;;;;;;;;;;;;30.15;55.04;99087.91;5035569;28;20145;-44
2023/06/16 10:14:11;;;;;;;;;;;;;;;30.72;51.66;99063.69;5033755;28;20394;-45
2023/06/16 10:16:37;;;;;;;;;;;;;;;32.11;42.96;99005.59;5032697;28;20008;-44
2023/06/16 10:19:02;;;;;;;;;;;;;;;31.01;51.22;99052.34;5020320;28;19956;-44
2023/06/16 10:21:27;;;;;;;;;;;;;;;31.17;48.37;99039.91;5034668;28;19929;-44
2023/06/16 10:23:53;;;;;;;;;;;;;;;32.37;48.25;99026.38;5035234;28;20313;-45
2023/06/16 10:26:19;;;;;;;;;;;;;;;31.45;50.31;99042.81;5020036;28;19924;-44
2023/06/16 10:28:44;;;;;;;;;;;;;;;31.70;48.59;99026.56;5034470;28;19917;-45
2023/06/16 10:31:11;;;;;;;;;;;;;;;32.04;47.33;99020.69;5018699;28;19921;-44
2023/06/16 10:33:58;;;;;;;;;;;;;;;30.79;48.10;99038.06;5033852;28;19929;-45
2023/06/16 10:36:24;;;;;;;;;;;;;;;30.70;50.92;99046.25;5003717;28;19921;-44
2023/06/16 10:38:59;;;;;;;;;;;;;;;30.98;41.13;98975.59;5018405;28;19928;-44
2023/06/16 10:41:31;;;;;;;;;;;;;;;31.22;45.53;99017.06;5020348;28;20020;-44
2023/06/16 10:43:56;;;;;;;;;;;;;;;30.11;46.92;99042.28;5033747;28;19917;-44
2023/06/16 10:46:23;;;;;;;;;;;;;;;31.20;45.24;99012.94;5033906;28;19921;-44
2023/06/16 10:48:56;;;;;;;;;;;;;;;30.82;45.69;99021.72;5019058;28;20282;-44
2023/06/16 10:51:41;;;;;;;;;;;;;;;32.54;43.50;98994.16;5020004;28;19917;-44
2023/06/16 10:54:09;;;;;;;;;;;;;;;30.99;45.09;99005.66;5019226;28;19917;-45
2023/06/16 10:56:59;;;;;;;;;;;;;;;30.32;43.52;99001.03;5019378;28;20038;-44
2023/06/16 10:59:25;;;;;;;;;;;;;;;31.89;42.10;98983.41;5017601;28;19924;-44
2023/06/16 11:01:51;;;;;;;;;;;;;;;30.22;43.07;99010.00;5017751;28;19917;-44
2023/06/16 11:04:16;;;;;;;;;;;;;;;30.59;45.75;99026.25;5033813;28;20310;-44
2023/06/16 11:07:00;;;;;;;;;;;;;;;30.62;47.37;99023.22;5019218;28;20301;-45
2023/06/16 11:09:31;;;;;;;;;;;;;;;31.10;41.26;98981.28;5018499;28;19979;-44
2023/06/16 11:11:57;;;;;;;;;;;;;;;34.75;33.71;98912.19;5005354;28;19917;-44
2023/06/16 11:14:22;;;;;;;;;;;;;;;34.43;32.05;98906.59;5017696;28;20071;-46
2023/06/16 11:16:48;;;;;;;;;;;;;;;33.52;37.05;98977.22;5033247;28;20012;-45
2023/06/16 11:19:16;;;;;;;;;;;;;;;32.88;37.78;98970.25;5018565;28;20010;-45
2023/06/16 11:21:42;;;;;;;;;;;;;;;33.21;37.45;98960.84;5014527;28;19921;-44
2023/06/16 11:24:08;;;;;;;;;;;;;;;32.73;38.65;98982.88;5010565;28;19982;-45
2023/06/16 11:26:33;;;;;;;;;;;;;;;34.84;41.25;98967.13;5013598;28;19921;-45
2023/06/16 11:28:59;;;;;;;;;;;;;;;34.11;36.19;98943.81;5014783;28;19917;-45
2023/06/16 11:31:25;;;;;;;;;;;;;;;31.85;44.47;99022.88;4997362;28;19928;-45
2023/06/16 11:33:53;;;;;;;;;;;;;;;31.29;43.40;99005.69;5012602;28;19979;-44
2023/06/16 11:36:22;;;;;;;;;;;;;;;33.01;40.56;98980.19;5013480;28;19925;-45
2023/06/16 11:38:49;;;;;;;;;;;;;;;33.07;38.99;98973.28;5013715;28;20024;-45
2023/06/16 11:41:23;;;;;;;;;;;;;;;32.15;40.55;98990.06;5015645;28;19975;-45
2023/06/16 11:43:52;;;;;;;;;;;;;;;31.88;42.62;99019.03;5019273;28;19925;-46
2023/06/16 11:46:22;;;;;;;;;;;;;;;32.09;41.80;98996.94;5018033;28;20397;-45
2023/06/16 11:48:48;;;;;;;;;;;;;;;32.26;43.75;99002.91;5012413;28;19929;-45
2023/06/16 11:51:13;;;;;;;;;;;;;;;33.55;38.02;98946.63;5034963;28;19970;-46
2023/06/16 11:53:39;;;;;;;;;;;;;;;32.07;46.60;99029.13;5022241;28;19917;-44
2023/06/16 11:56:07;;;;;;;;;;;;;;;31.81;41.71;98986.16;5022513;28;20638;-45
2023/06/16 11:58:33;;;;;;;;;;;;;;;31.62;42.40;98985.72;5020396;28;20457;-46
2023/06/16 12:01:00;;;;;;;;;;;;;;;34.32;34.86;98933.97;5010145;28;19928;-44
2023/06/16 12:03:28;;;;;;;;;;;;;;;36.66;34.38;98915.25;5017619;28;19928;-45
2023/06/16 12:05:54;;;;;;;;;;;;;;;32.30;42.56;99005.00;5036207;28;19964;-44
2023/06/16 12:08:38;;;;;;;;;;;;;;;32.77;40.64;98973.44;5035431;28;19999;-45
2023/06/16 12:11:03;;;;;;;;;;;;;;;32.23;41.84;98971.31;5020688;28;20741;-45
2023/06/16 12:13:29;;;;;;;;;;;;;;;32.78;40.75;98953.78;5021048;28;19921;-44
2023/06/16 12:15:54;;;;;;;;;;;;;;;33.03;41.43;98969.34;5018346;28;20455;-45
2023/06/16 12:18:19;;;;;;;;;;;;;;;33.08;36.99;98937.59;5036023;28;20413;-44
2023/06/16 12:20:44;;;;;;;;;;;;;;;31.50;41.68;98986.38;5036493;28;20369;-45
2023/06/16 12:23:10;;;;;;;;;;;;;;;30.71;45.56;98992.91;5019762;28;20884;-44
2023/06/16 12:25:35;;;;;;;;;;;;;;;32.28;45.74;98987.53;5021388;28;20865;-45
2023/06/16 12:28:02;;;;;;;;;;;;;;;31.40;45.93;98986.63;5001412;28;20007;-45
2023/06/16 12:30:31;;;;;;;;;;;;;;;31.80;44.43;98971.22;5019059;28;20390;-44
2023/06/16 12:32:56;;;;;;;;;;;;;;;32.47;40.30;98938.91;5015879;28;19925;-46
2023/06/16 12:35:22;;;;;;;;;;;;;;;33.92;38.33;98928.53;5019399;28;19921;-45
2023/06/16 12:37:47;;;;;;;;;;;;;;;33.16;35.83;98923.25;5021405;28;19931;-45
2023/06/16 12:40:15;;;;;;;;;;;;;;;34.24;33.29;98886.88;5020233;28;20378;-44
2023/06/16 12:42:40;;;;;;;;;;;;;;;34.24;33.28;98910.13;5021881;28;19956;-44
2023/06/16 12:45:06;;;;;;;;;;;;;;;35.31;31.68;98873.38;5019802;28;20402;-44
2023/06/16 12:47:32;;;;;;;;;;;;;;;35.66;31.56;98886.41;5035337;28;19924;-44
2023/06/16 12:49:58;;;;;;;;;;;;;;;34.17;33.49;98899.41;5019458;28;19980;-44
2023/06/16 12:52:24;;;;;;;;;;;;;;;33.25;36.16;98930.88;5021508;28;20026;-44
2023/06/16 12:54:50;;;;;;;;;;;;;;;35.59;35.19;98918.56;5019538;28;19925;-45
2023/06/16 12:57:15;;;;;;;;;;;;;;;33.12;39.25;98965.53;5018167;28;19920;-45
2023/06/16 12:59:41;;;;;;;;;;;;;;;34.40;33.66;98901.69;5018779;28;19940;-44
2023/06/16 13:05:09;;;;;;;;;;;;;;;34.63;31.50;98889.78;5010937;28;19931;-45
2023/06/16 13:07:34;;;;;;;;;;;;;;;36.37;31.55;98871.91;5017505;28;19917;-47
2023/06/16 13:09:59;;;;;;;;;;;;;;;37.04;33.66;98894.41;5016568;28;19921;-46
2023/06/16 13:12:25;;;;;;;;;;;;;;;36.00;32.90;98890.53;5036630;28;19955;-51
2023/06/16 13:14:50;;;;;;;;;;;;;;;33.33;35.23;98930.75;5020294;28;19945;-44
2023/06/16 13:17:16;;;;;;;;;;;;;;;32.08;37.71;98953.50;5020808;28;19963;-45
2023/06/16 13:19:41;;;;;;;;;;;;;;;33.53;36.77;98909.47;5016787;28;19976;-46
2023/06/16 13:22:07;;;;;;;;;;;;;;;33.78;33.55;98897.44;5021253;28;20038;-45
2023/06/16 13:24:32;;;;;;;;;;;;;;;34.46;33.31;98892.00;5033904;28;19926;-45
2023/06/16 13:26:57;;;;;;;;;;;;;;;32.31;37.92;98947.19;5018228;28;19921;-47
2023/06/16 13:29:22;;;;;;;;;;;;;;;31.00;43.38;98991.38;5018534;28;20043;-45
2023/06/16 13:31:48;;;;;;;;;;;;;;;31.64;41.15;98951.75;5020546;28;20415;-45
2023/06/16 13:34:13;;;;;;;;;;;;;;;33.16;36.93;98902.72;5019925;28;19914;-44
2023/06/16 13:36:38;;;;;;;;;;;;;;;33.77;36.75;98899.28;5020393;28;19928;-45
2023/06/16 13:39:04;;;;;;;;;;;;;;;32.90;37.96;98914.03;5021559;28;19921;-45
2023/06/16 13:41:29;;;;;;;;;;;;;;;33.02;35.94;98879.63;5021315;28;20706;-45
2023/06/16 13:43:54;;;;;;;;;;;;;;;33.36;36.74;98892.16;5020336;28;19917;-45
2023/06/16 13:46:20;;;;;;;;;;;;;;;32.72;38.51;98906.53;5020186;28;20426;-45
2023/06/16 13:48:46;;;;;;;;;;;;;;;32.24;39.19;98920.47;5019413;28;19948;-46
2023/06/16 13:51:11;;;;;;;;;;;;;;;34.36;36.48;98873.72;5021026;28;19927;-45
2023/06/16 13:53:36;;;;;;;;;;;;;;;36.30;32.64;98844.34;5019248;28;19917;-45
2023/06/16 13:56:02;;;;;;;;;;;;;;;35.01;33.11;98864.97;5020801;28;20366;-45
2023/06/16 13:58:27;;;;;;;;;;;;;;;34.30;34.83;98883.34;5019742;28;20378;-46
2023/06/16 14:00:52;;;;;;;;;;;;;;;34.38;38.80;98906.41;5020094;28;20030;-46
2023/06/16 14:03:19;;;;;;;;;;;;;;;34.94;36.95;98868.53;5017732;28;20309;-45
2023/06/16 14:05:44;;;;;;;;;;;;;;;33.12;40.92;98907.63;5019151;28;20601;-46
2023/06/16 14:08:10;;;;;;;;;;;;;;;33.32;39.25;98894.41;5017680;28;20724;-47
2023/06/16 14:10:35;;;;;;;;;;;;;;;31.84;37.49;98872.09;5019578;28;19943;-44
2023/06/16 14:13:00;;;;;;;;;;;;;;;32.53;39.30;98896.56;5032899;28;20501;-45
2023/06/16 14:15:28;;;;;;;;;;;;;;;33.75;37.81;98878.13;5018601;28;19928;-45
2023/06/16 14:17:53;;;;;;;;;;;;;;;31.68;36.62;98881.16;5018861;28;19971;-45
2023/06/16 14:20:18;;;;;;;;;;;;;;;31.05;41.34;98920.66;5018241;28;19972;-44
2023/06/16 14:22:43;;;;;;;;;;;;;;;33.21;36.44;98846.94;5020405;28;20304;-45
2023/06/16 14:25:09;;;;;;;;;;;;;;;34.52;31.48;98803.75;5020228;28;20814;-45
2023/06/16 14:27:34;;;;;;;;;;;;;;;33.85;36.36;98863.53;5019837;28;20544;-46
2023/06/16 14:30:03;;;;;;;;;;;;;;;32.81;36.42;98851.19;5015144;28;19948;-46
2023/06/16 14:32:29;;;;;;;;;;;;;;;33.56;37.30;98857.50;5020428;28;19925;-47
2023/06/16 14:34:54;;;;;;;;;;;;;;;34.85;36.82;98851.06;5018351;28;19924;-45
2023/06/16 14:37:19;;;;;;;;;;;;;;;34.38;33.58;98823.53;5020593;28;19917;-45
2023/06/16 14:39:44;;;;;;;;;;;;;;;34.34;32.65;98817.75;5050797;28;20047;-46
2023/06/16 14:42:11;;;;;;;;;;;;;;;34.19;33.02;98829.69;5015267;28;19917;-45
2023/06/16 14:44:36;;;;;;;;;;;;;;;35.79;35.19;98844.28;5015360;28;19932;-45
2023/06/16 14:47:01;;;;;;;;;;;;;;;35.12;34.67;98837.59;5015975;28;20305;-46
2023/06/16 14:49:27;;;;;;;;;;;;;;;36.59;32.93;98814.16;5013673;28;19936;-46
2023/06/16 14:51:52;;;;;;;;;;;;;;;36.62;31.64;98794.91;5019440;28;19928;-48
2023/06/16 14:54:17;;;;;;;;;;;;;;;33.95;35.22;98853.31;5018329;28;19940;-47
2023/06/16 14:56:42;;;;;;;;;;;;;;;33.95;37.02;98858.66;5017891;28;19928;-44
2023/06/16 14:59:08;;;;;;;;;;;;;;;31.76;40.06;98885.53;5017367;28;20007;-46
2023/06/16 15:01:33;;;;;;;;;;;;;;;32.18;44.41;98896.41;5017047;28;20000;-45
2023/06/16 15:03:58;;;;;;;;;;;;;;;32.88;40.49;98868.88;5018939;28;20000;-44
2023/06/16 15:06:24;;;;;;;;;;;;;;;33.10;39.35;98855.50;5019963;28;20011;-44
2023/06/16 15:08:49;;;;;;;;;;;;;;;35.98;36.48;98798.78;5019707;28;19932;-45
2023/06/16 15:11:15;;;;;;;;;;;;;;;33.67;35.20;98835.59;5019068;28;19978;-45
2023/06/16 15:13:40;;;;;;;;;;;;;;;33.92;36.85;98838.50;5019624;28;19917;-45
2023/06/16 15:16:05;;;;;;;;;;;;;;;33.84;38.09;98851.22;5019687;28;20281;-46
2023/06/16 15:18:31;;;;;;;;;;;;;;;32.72;40.03;98858.53;5018179;28;19925;-45
2023/06/16 15:20:56;;;;;;;;;;;;;;;31.23;40.55;98869.75;5018632;28;19921;-45
2023/06/16 15:23:21;;;;;;;;;;;;;;;31.45;37.92;98835.22;5051869;28;19917;-45
2023/06/16 15:25:46;;;;;;;;;;;;;;;31.96;41.71;98880.44;5020771;28;19921;-45
2023/06/16 15:28:12;;;;;;;;;;;;;;;31.92;42.15;98871.16;5024175;28;19919;-45
2023/06/16 15:30:37;;;;;;;;;;;;;;;31.92;41.13;98857.84;5022512;28;19921;-45
2023/06/16 15:33:03;;;;;;;;;;;;;;;30.60;42.50;98871.06;5022316;28;20026;-45
2023/06/16 15:35:28;;;;;;;;;;;;;;;32.33;39.75;98838.53;5021946;28;19932;-48
2023/06/16 15:37:53;;;;;;;;;;;;;;;34.05;36.18;98800.25;5022452;28;20014;-45
2023/06/16 15:40:18;;;;;;;;;;;;;;;34.67;34.51;98805.38;5022179;28;20027;-45
2023/06/16 15:42:47;;;;;;;;;;;;;;;32.85;37.65;98845.28;5021025;28;20006;-45
2023/06/16 15:45:12;;;;;;;;;;;;;;;33.62;36.82;98827.38;5023006;28;19917;-45
2023/06/16 15:47:37;;;;;;;;;;;;;;;34.75;36.94;98815.88;5020501;28;20011;-45
2023/06/16 15:50:02;;;;;;;;;;;;;;;35.04;34.74;98803.84;5017686;28;19925;-45
2023/06/16 15:52:28;;;;;;;;;;;;;;;34.20;34.87;98815.31;5016336;28;19921;-46
2023/06/16 15:54:53;;;;;;;;;;;;;;;35.69;34.94;98801.06;5018843;28;20032;-45
2023/06/16 15:57:18;;;;;;;;;;;;;;;36.27;34.72;98807.25;5017847;28;20004;-46
2023/06/16 15:59:43;;;;;;;;;;;;;;;35.22;34.14;98808.53;5033711;28;19936;-45
2023/06/16 16:02:09;;;;;;;;;;;;;;;35.35;35.30;98811.13;5020364;28;19983;-45
2023/06/16 16:04:34;;;;;;;;;;;;;;;33.37;36.84;98835.06;5020113;28;19925;-44
2023/06/16 16:07:00;;;;;;;;;;;;;;;34.57;36.95;98819.16;5023155;28;19921;-46
2023/06/16 16:09:25;;;;;;;;;;;;;;;34.94;36.83;98820.34;5017411;28;19929;-44
2023/06/16 16:11:51;;;;;;;;;;;;;;;35.79;37.02;98828.19;5023109;28;20437;-45
2023/06/16 16:14:16;;;;;;;;;;;;;;;32.87;39.20;98845.09;5034473;28;19925;-45
2023/06/16 16:16:41;;;;;;;;;;;;;;;34.86;40.36;98843.84;5047841;28;19921;-47
2023/06/16 16:19:06;;;;;;;;;;;;;;;33.81;39.07;98830.28;5054259;28;19965;-44
2023/06/16 16:21:32;;;;;;;;;;;;;;;34.57;37.88;98813.81;5023101;28;19921;-45
2023/06/16 16:23:57;;;;;;;;;;;;;;;33.19;39.38;98832.13;5020395;28;19960;-45
2023/06/16 16:26:23;;;;;;;;;;;;;;;33.32;40.07;98834.84;5021401;28;19955;-44
2023/06/16 16:28:50;;;;;;;;;;;;;;;35.71;37.59;98801.66;5021805;28;19925;-46
2023/06/16 16:31:16;;;;;;;;;;;;;;;33.34;40.90;98852.28;5021018;28;20459;-45
2023/06/16 16:33:41;;;;;;;;;;;;;;;34.32;38.72;98832.38;5019836;28;19929;-45
2023/06/16 16:36:06;;;;;;;;;;;;;;;33.19;41.00;98850.81;5035346;28;19920;-45
2023/06/16 16:38:32;;;;;;;;;;;;;;;33.84;38.84;98816.50;5052259;28;19931;-45
2023/06/16 16:40:57;;;;;;;;;;;;;;;34.90;38.69;98827.16;5022274;28;19917;-45
2023/06/16 16:43:22;;;;;;;;;;;;;;;34.08;37.92;98823.91;5016286;28;19925;-45
2023/06/16 16:45:47;;;;;;;;;;;;;;;34.58;39.64;98837.69;5018551;28;19937;-47
2023/06/16 16:48:13;;;;;;;;;;;;;;;35.92;36.00;98794.28;5036953;28;19921;-48
2023/06/16 16:50:39;;;;;;;;;;;;;;;35.54;37.29;98811.25;5021520;28;19917;-48
2023/06/16 16:53:05;;;;;;;;;;;;;;;34.04;38.02;98828.03;5017945;28;20491;-48
2023/06/16 16:55:30;;;;;;;;;;;;;;;34.67;37.41;98821.44;5022116;28;19917;-48
2023/06/16 16:57:56;;;;;;;;;;;;;;;34.26;38.26;98839.38;5019969;28;20424;-48
2023/06/16 17:00:21;;;;;;;;;;;;;;;33.49;40.00;98840.66;5018174;28;20345;-48
2023/06/16 17:02:47;;;;;;;;;;;;;;;33.52;39.03;98822.38;5020457;28;19974;-48
2023/06/16 17:05:12;;;;;;;;;;;;;;;33.74;38.28;98820.41;5020886;28;20410;-48
2023/06/16 17:07:37;;;;;;;;;;;;;;;32.77;38.31;98824.09;5015943;28;20212;-48
2023/06/16 17:10:03;;;;;;;;;;;;;;;35.45;37.81;98804.50;5020007;28;20007;-48
2023/06/16 17:12:28;;;;;;;;;;;;;;;33.47;36.51;98818.66;5020058;28;20032;-48
2023/06/16 17:14:53;;;;;;;;;;;;;;;32.54;39.56;98834.22;5027741;28;19925;-48
2023/06/16 17:17:18;;;;;;;;;;;;;;;33.08;38.64;98830.84;5017505;28;19918;-48
2023/06/16 17:19:43;;;;;;;;;;;;;;;34.06;39.43;98820.63;5019354;28;20375;-48